Terminal Aerodrome Forecast
Issued by NWS

Home | Current Version | Previous Version | Text Only | Print | Product List | Glossary On
Versions: 1 2 3 4 5 6 7 8 9 10 11 12 13 14 15
000
FTUS44 KSJT 251700
TAFBBD
TAF
KBBD 251720Z 2518/2618 18017G23KT P6SM SCT250
     FM260100 16006KT P6SM BKN250
     FM260900 19006KT 5SM BR OVC015
     FM261600 19008G14KT P6SM OVC015=

USA.gov is the U.S. government's official web portal to all federal, state and local government web resources and services.